.
WxDataArchive / Data Records for 2014-08-20
2014-08-19 August 2014 2014-08-21

Data Records for Wednesday, 20 August 2014

Time	Temp	Chill	HIndex	Humid	Dewpt	 Wind 	HiWind	WindDir	Rain 	Barom
-----	----	-----	------	-----	-----	------	------	-------	-----	-----
00:00	68.9	68.9	68.9	94	67.1	0	1	68	0.00	29.757 
00:05	68.9	68.9	68.9	94	67.1	0	0	---	0.00	29.757 
00:10	68.9	68.9	68.9	94	67.1	0	0	---	0.00	29.757 
00:15	68.9	68.9	68.9	94	67.1	0	0	---	0.00	29.751 
00:20	68.8	68.8	68.8	94	67.0	0	0	---	0.00	29.751 
00:25	68.8	68.8	68.8	94	67.0	0	0	---	0.00	29.751 
00:30	68.8	68.8	68.8	94	67.0	0	0	---	0.00	29.743 
00:35	68.8	68.8	68.8	94	67.0	0	0	---	0.00	29.743 
00:40	68.6	68.6	68.6	94	66.8	0	0	---	0.00	29.743 
00:45	68.6	68.6	68.6	94	66.8	0	0	---	0.00	29.745 
00:50	68.4	68.4	68.4	94	66.6	0	0	---	0.00	29.745 
00:55	68.4	68.4	68.4	95	66.9	0	0	---	0.00	29.745 
01:00	68.4	68.4	68.4	94	66.6	0	0	---	0.00	29.756 
01:05	68.4	68.4	68.4	94	66.6	0	0	---	0.00	29.756 
01:10	68.4	68.4	68.4	94	66.6	0	0	---	0.00	29.756 
01:15	68.3	68.3	68.3	95	66.8	0	0	---	0.00	29.750 
01:20	68.3	68.3	68.3	95	66.8	0	0	---	0.00	29.750 
01:25	68.1	68.1	68.1	94	66.3	0	0	---	0.00	29.750 
01:30	68.1	68.1	68.1	95	66.6	0	0	---	0.00	29.745 
01:35	67.9	67.9	67.9	95	66.4	0	0	---	0.00	29.745 
01:40	67.9	67.9	67.9	95	66.4	0	0	---	0.00	29.745 
01:45	67.9	67.9	67.9	95	66.4	0	0	---	0.00	29.739 
01:50	67.9	67.9	67.9	95	66.4	0	0	---	0.00	29.739 
01:55	67.9	67.9	67.9	95	66.4	0	0	---	0.00	29.739 
02:00	68.1	68.1	68.1	95	66.6	0	0	---	0.00	29.740 
02:05	68.1	68.1	68.1	95	66.6	0	0	---	0.00	29.740 
02:10	68.1	68.1	68.1	95	66.6	0	0	---	0.00	29.740 
02:15	67.9	67.9	67.9	95	66.4	0	0	---	0.00	29.740 
02:20	67.9	67.9	67.9	95	66.4	0	0	---	0.00	29.740 
02:25	67.9	67.9	67.9	95	66.4	0	0	---	0.00	29.740 
02:30	67.9	67.9	67.9	95	66.4	0	0	---	0.00	29.738 
02:35	67.8	67.8	67.8	95	66.3	0	0	---	0.00	29.738 
02:40	67.8	67.8	67.8	95	66.3	0	0	---	0.00	29.738 
02:45	67.6	67.6	67.6	95	66.1	0	0	---	0.00	29.741 
02:50	67.6	67.6	67.6	95	66.1	0	0	---	0.00	29.741 
02:55	67.6	67.6	67.6	95	66.1	0	0	---	0.00	29.741 
03:00	67.4	67.4	67.4	95	65.9	0	0	---	0.00	29.741 
03:05	67.4	67.4	67.4	95	65.9	0	0	---	0.00	29.741 
03:10	67.4	67.4	67.4	95	65.9	0	0	---	0.00	29.741 
03:15	67.4	67.4	67.4	95	65.9	0	0	---	0.00	29.742 
03:20	67.4	67.4	67.4	95	65.9	0	0	---	0.00	29.742 
03:25	67.4	67.4	67.4	95	65.9	0	0	---	0.00	29.742 
03:30	67.3	67.3	67.3	95	65.8	0	0	---	0.00	29.747 
03:35	67.3	67.3	67.3	95	65.8	0	0	---	0.00	29.747 
03:40	67.3	67.3	67.3	95	65.8	0	1	68	0.00	29.747 
03:45	67.3	67.3	67.3	95	65.8	0	1	68	0.00	29.755 
03:50	67.3	67.3	67.3	95	65.8	0	1	68	0.00	29.755 
03:55	67.3	67.3	67.3	95	65.8	0	1	68	0.00	29.755 
04:00	67.3	67.3	67.3	95	65.8	0	1	68	0.00	29.758 
04:05	67.3	67.3	67.3	95	65.8	0	1	68	0.00	29.758 
04:10	67.3	67.3	67.3	95	65.8	0	0	---	0.00	29.758 
04:15	67.3	67.3	67.3	95	65.8	0	1	68	0.00	29.770 
04:20	67.3	67.3	67.3	95	65.8	0	1	68	0.00	29.770 
04:25	67.3	67.3	67.3	95	65.8	0	0	---	0.00	29.770 
04:30	67.1	67.1	67.1	95	65.6	0	0	---	0.00	29.775 
04:35	67.1	67.1	67.1	95	65.6	0	1	68	0.00	29.775 
04:40	67.1	67.1	67.1	95	65.6	0	1	68	0.00	29.775 
04:45	66.9	66.9	66.9	95	65.4	0	0	---	0.00	29.775 
04:50	66.9	66.9	66.9	95	65.4	0	0	---	0.00	29.775 
04:55	66.9	66.9	66.9	95	65.4	0	0	---	0.00	29.775 
05:00	66.8	66.8	66.8	95	65.3	0	0	---	0.00	29.778 
05:05	66.8	66.8	66.8	95	65.3	0	0	---	0.00	29.778 
05:10	66.8	66.8	66.8	95	65.3	0	0	---	0.00	29.778 
05:15	66.6	66.6	66.6	95	65.1	0	1	68	0.00	29.781 
05:20	66.6	66.6	66.6	95	65.1	0	0	---	0.00	29.781 
05:25	66.6	66.6	66.6	95	65.1	0	0	---	0.00	29.781 
05:30	66.4	66.4	66.4	95	64.9	0	0	---	0.00	29.782 
05:35	66.4	66.4	66.4	95	64.9	0	0	---	0.00	29.782 
05:40	66.4	66.4	66.4	95	64.9	0	0	---	0.00	29.782 
05:45	66.3	66.3	66.3	95	64.8	0	0	---	0.00	29.783 
05:50	66.3	66.3	66.3	95	64.8	0	1	68	0.00	29.783 
05:55	66.3	66.3	66.3	95	64.8	0	0	---	0.00	29.783 
06:00	66.1	66.1	66.1	95	64.6	0	0	---	0.00	29.789 
06:05	66.1	66.1	66.1	95	64.6	0	1	68	0.00	29.789 
06:10	66.1	66.1	66.1	95	64.6	0	0	---	0.00	29.789 
06:15	66.1	66.1	66.1	95	64.6	0	0	---	0.00	29.796 
06:20	66.1	66.1	66.1	95	64.6	0	0	---	0.00	29.796 
06:25	66.1	66.1	66.1	95	64.6	0	0	---	0.00	29.796 
06:30	66.0	66.0	66.0	95	64.5	0	0	---	0.00	29.800 
06:35	66.0	66.0	66.0	95	64.5	0	1	68	0.00	29.800 
06:40	66.0	66.0	66.0	95	64.5	0	0	---	0.00	29.800 
06:45	66.0	66.0	66.0	95	64.5	0	0	---	0.00	29.805 
06:50	65.8	65.8	65.8	96	64.6	0	0	---	0.00	29.805 
06:55	66.0	66.0	66.0	96	64.8	0	1	68	0.00	29.805 
07:00	66.0	66.0	66.0	96	64.8	0	1	68	0.00	29.810 
07:05	66.0	66.0	66.0	96	64.8	0	1	68	0.00	29.810 
07:10	66.0	66.0	66.0	96	64.8	0	0	---	0.00	29.810 
07:15	66.0	66.0	66.0	96	64.8	0	1	68	0.00	29.814 
07:20	66.0	66.0	66.0	96	64.8	0	1	68	0.00	29.814 
07:25	66.1	66.1	66.1	96	64.9	0	0	---	0.00	29.814 
07:30	66.1	66.1	66.1	96	64.9	0	1	68	0.00	29.813 
07:35	66.1	66.1	66.1	96	64.9	0	0	---	0.00	29.813 
07:40	66.1	66.1	66.1	96	64.9	0	1	68	0.00	29.813 
07:45	66.3	66.3	66.3	96	65.1	0	1	68	0.00	29.814 
07:50	66.3	66.3	66.3	96	65.1	0	1	68	0.00	29.814 
07:55	66.4	66.4	66.4	96	65.2	0	1	68	0.00	29.814 
08:00	66.6	66.6	66.6	96	65.4	0	1	68	0.00	29.816 
08:05	66.8	66.8	66.8	96	65.6	0	1	68	0.00	29.816 
08:10	67.1	67.1	67.1	96	65.9	0	1	68	0.00	29.816 
08:15	67.3	67.3	67.3	96	66.1	0	1	68	0.00	29.819 
08:20	67.6	67.6	67.6	96	66.4	0	1	68	0.00	29.819 
08:25	67.8	67.8	67.8	96	66.6	0	1	68	0.00	29.819 
08:30	68.1	68.1	68.1	95	66.6	0	1	68	0.00	29.825 
08:35	68.1	68.1	68.1	95	66.6	0	2	68	0.00	29.825 
08:40	68.4	68.4	68.4	95	66.9	0	1	68	0.00	29.825 
08:45	68.8	68.8	68.8	95	67.3	0	2	68	0.00	29.830 
08:50	68.9	68.9	68.9	95	67.4	0	1	68	0.00	29.830 
08:55	69.1	69.1	69.1	94	67.3	0	1	68	0.00	29.830 
09:00	69.3	69.3	69.3	94	67.5	0	1	68	0.00	29.832 
09:05	69.4	69.4	69.4	94	67.6	0	1	68	0.00	29.832 
09:10	69.8	69.8	69.8	94	68.0	0	1	68	0.00	29.832 
09:15	69.8	69.8	69.8	93	67.7	0	1	68	0.00	29.831 
09:20	70.1	70.1	70.1	93	68.0	0	1	68	0.00	29.831 
09:25	70.4	70.4	70.4	92	68.0	0	0	---	0.00	29.831 
09:30	70.8	70.8	70.8	92	68.4	0	1	68	0.00	29.833 
09:35	70.9	70.9	70.9	91	68.1	0	2	68	0.00	29.833 
09:40	71.1	71.1	71.1	90	68.0	0	2	68	0.00	29.833 
09:45	71.5	71.5	71.5	88	67.7	0	2	68	0.00	29.836 
09:50	72.0	72.0	72.0	88	68.2	0	1	68	0.00	29.836 
09:55	72.5	72.5	72.5	87	68.4	0	1	68	0.00	29.836 
10:00	72.7	72.7	72.7	84	67.6	0	2	68	0.00	29.839 
10:05	73.0	73.0	73.0	84	67.9	0	2	68	0.00	29.839 
10:10	73.3	73.3	73.3	82	67.5	0	2	68	0.00	29.839 
10:15	73.7	73.7	73.7	81	67.5	0	2	68	0.00	29.847 
10:20	74.2	74.2	74.2	81	68.0	0	3	270	0.00	29.847 
10:25	74.7	74.7	74.7	80	68.1	0	2	270	0.00	29.847 
10:30	74.9	74.9	74.9	78	67.6	1	3	270	0.00	29.850 
10:35	75.3	75.3	76.4	76	67.2	0	2	270	0.00	29.850 
10:40	75.8	75.8	77.0	76	67.7	0	2	270	0.00	29.850 
10:45	76.3	76.3	77.7	75	67.8	1	2	270	0.00	29.855 
10:50	76.5	76.5	78.1	73	67.2	1	2	270	0.00	29.855 
10:55	76.8	76.8	78.5	73	67.5	1	2	270	0.01	29.855 
11:00	77.2	77.2	79.0	74	68.3	0	1	270	0.00	29.854 
11:05	77.7	77.7	79.7	73	68.3	0	1	270	0.00	29.854 
11:10	77.9	77.9	79.9	69	66.9	1	2	270	0.00	29.854 
11:15	78.3	78.3	80.5	71	68.1	1	3	270	0.00	29.856 
11:20	78.5	78.5	80.7	70	67.9	1	3	270	0.00	29.856 
11:25	78.6	78.6	80.8	69	67.6	1	2	270	0.00	29.856 
11:30	79.2	79.2	81.4	66	66.8	0	1	270	0.00	29.853 
11:35	79.8	79.8	82.2	66	67.4	1	3	270	0.00	29.853 
11:40	80.1	80.1	82.4	64	66.8	1	2	270	0.00	29.853 
11:45	79.6	79.6	81.7	64	66.3	1	3	270	0.00	29.853 
11:50	79.4	79.4	81.5	64	66.1	1	3	270	0.00	29.853 
11:55	79.6	79.6	81.8	65	66.8	1	4	270	0.00	29.853 
12:00	80.1	80.1	82.5	65	67.2	0	2	270	0.00	29.860 
12:05	80.5	80.5	82.5	61	65.8	1	4	270	0.00	29.860 
12:10	80.7	80.7	82.7	60	65.5	1	3	270	0.00	29.860 
12:15	80.7	80.7	82.4	58	64.5	1	3	292	0.00	29.863 
12:20	80.7	80.7	82.4	58	64.5	1	3	292	0.00	29.863 
12:25	80.5	80.5	82.1	57	63.8	1	4	292	0.00	29.863 
12:30	80.1	80.1	81.7	58	64.0	1	3	292	0.00	29.855 
12:35	80.3	80.3	81.8	57	63.7	1	3	292	0.00	29.855 
12:40	80.7	80.7	82.4	58	64.5	0	2	292	0.00	29.855 
12:45	80.9	80.9	82.5	57	64.2	1	4	292	0.00	29.865 
12:50	81.2	81.2	83.0	58	65.0	1	3	292	0.00	29.865 
12:55	81.1	81.1	82.6	56	63.9	1	3	292	0.00	29.865 
13:00	81.1	81.1	82.5	55	63.4	2	4	292	0.00	29.871 
13:05	81.6	81.6	83.9	60	66.3	1	3	270	0.00	29.871 
13:10	82.0	82.0	83.4	54	63.7	1	3	270	0.00	29.871 
13:15	82.4	82.4	83.9	54	64.1	1	3	270	0.00	29.868 
13:20	82.4	82.4	83.9	54	64.1	1	3	270	0.00	29.868 
13:25	82.2	82.2	84.0	56	64.9	1	3	270	0.00	29.868 
13:30	82.2	82.2	83.8	55	64.4	1	4	270	0.00	29.875 
13:35	82.2	82.2	84.0	56	64.9	1	5	270	0.00	29.875 
13:40	82.2	82.2	83.8	55	64.4	2	4	270	0.00	29.875 
13:45	81.6	81.6	83.2	56	64.4	1	4	270	0.00	29.882 
13:50	81.8	81.8	83.5	56	64.5	1	4	270	0.00	29.882 
13:55	81.8	81.8	83.3	55	64.0	2	6	270	0.00	29.882 
14:00	82.0	82.0	83.4	54	63.7	2	5	270	0.00	29.882 
14:05	82.2	82.2	83.6	54	63.9	1	5	270	0.00	29.882 
14:10	82.2	82.2	83.5	53	63.3	3	6	270	0.00	29.882 
14:15	82.4	82.4	83.9	54	64.1	2	6	315	0.00	29.885 
14:20	83.0	83.0	84.7	54	64.6	1	4	292	0.00	29.885 
14:25	83.2	83.2	84.7	53	64.3	3	6	270	0.00	29.885 
14:30	82.8	82.8	84.0	52	63.3	3	6	270	0.00	29.885 
14:35	82.4	82.4	83.7	53	63.5	3	6	270	0.00	29.885 
14:40	82.8	82.8	84.2	53	63.9	3	5	292	0.00	29.885 
14:45	83.0	83.0	84.3	52	63.5	3	6	270	0.00	29.890 
14:50	82.8	82.8	84.2	53	63.9	2	5	270	0.00	29.890 
14:55	83.4	83.4	84.8	52	63.9	2	6	270	0.00	29.890 
15:00	83.6	83.6	84.6	50	63.0	2	5	270	0.00	29.881 
15:05	83.8	83.8	84.9	50	63.1	2	4	270	0.00	29.881 
15:10	84.0	84.0	85.1	50	63.3	2	6	270	0.00	29.881 
15:15	84.1	84.1	85.3	50	63.4	2	5	270	0.00	29.875 
15:20	84.5	84.5	85.8	50	63.8	2	6	270	0.00	29.875 
15:25	84.5	84.5	85.8	50	63.8	2	4	270	0.00	29.875 
15:30	84.7	84.7	86.0	50	64.0	2	4	270	0.00	29.867 
15:35	84.3	84.3	85.3	49	63.0	2	6	270	0.00	29.867 
15:40	83.6	83.6	84.4	49	62.4	2	6	270	0.00	29.867 
15:45	83.2	83.2	84.3	51	63.2	2	5	270	0.00	29.869 
15:50	83.4	83.4	84.6	51	63.3	2	6	270	0.00	29.869 
15:55	83.8	83.8	85.1	51	63.7	1	5	270	0.00	29.869 
16:00	83.8	83.8	84.9	50	63.1	2	5	292	0.00	29.862 
16:05	84.0	84.0	85.1	50	63.3	3	7	270	0.00	29.862 
16:10	84.0	84.0	85.3	51	63.9	1	4	270	0.00	29.862 
16:15	83.8	83.8	84.9	50	63.1	2	6	270	0.00	29.861 
16:20	83.4	83.4	84.6	51	63.3	2	6	270	0.00	29.861 
16:25	83.6	83.6	84.6	50	63.0	2	6	270	0.00	29.861 
16:30	83.8	83.8	85.1	51	63.7	2	7	270	0.00	29.864 
16:35	84.0	84.0	85.1	50	63.3	3	7	270	0.00	29.864 
16:40	84.3	84.3	85.7	51	64.2	1	5	270	0.00	29.864 
16:45	84.0	84.0	84.9	49	62.8	2	6	270	0.00	29.863 
16:50	84.0	84.0	85.1	50	63.3	2	9	270	0.00	29.863 
16:55	84.0	84.0	85.1	50	63.3	2	5	270	0.00	29.863 
17:00	84.1	84.1	85.3	50	63.4	1	3	270	0.00	29.853 
17:05	84.0	84.0	85.3	51	63.9	1	3	270	0.00	29.853 
17:10	84.0	84.0	85.1	50	63.3	1	4	270	0.00	29.853 
17:15	84.0	84.0	85.1	50	63.3	2	4	292	0.00	29.855 
17:20	83.6	83.6	85.0	52	64.1	1	3	292	0.00	29.855 
17:25	83.6	83.6	85.0	52	64.1	1	3	292	0.00	29.855 
17:30	84.0	84.0	85.3	51	63.9	1	4	292	0.00	29.852 
17:35	84.0	84.0	85.1	50	63.3	1	4	292	0.00	29.852 
17:40	84.0	84.0	85.3	51	63.9	2	4	292	0.00	29.852 
17:45	84.0	84.0	85.1	50	63.3	2	6	270	0.00	29.855 
17:50	83.6	83.6	84.8	51	63.5	2	5	292	0.00	29.855 
17:55	83.6	83.6	84.6	50	63.0	1	4	270	0.00	29.855 
18:00	83.8	83.8	84.9	50	63.1	1	2	270	0.00	29.850 
18:05	83.8	83.8	84.9	50	63.1	1	4	270	0.00	29.850 
18:10	83.8	83.8	85.1	51	63.7	1	5	270	0.00	29.850 
18:15	83.8	83.8	85.5	53	64.8	0	3	270	0.00	29.841 
18:20	83.6	83.6	84.8	51	63.5	1	4	270	0.00	29.841 
18:25	83.6	83.6	84.8	51	63.5	1	3	270	0.00	29.841 
18:30	83.4	83.4	84.4	50	62.8	0	2	270	0.00	29.837 
18:35	83.4	83.4	84.4	50	62.8	1	3	270	0.00	29.837 
18:40	83.4	83.4	84.4	50	62.8	1	4	270	0.00	29.837 
18:45	83.4	83.4	84.8	52	63.9	0	1	270	0.00	29.835 
18:50	83.4	83.4	84.6	51	63.3	0	2	270	0.00	29.835 
18:55	83.2	83.2	84.3	51	63.2	1	2	270	0.00	29.835 
19:00	83.0	83.0	84.1	51	63.0	0	2	270	0.00	29.829 
19:05	83.0	83.0	84.1	51	63.0	1	2	270	0.00	29.829 
19:10	82.8	82.8	83.8	51	62.8	1	4	292	0.00	29.829 
19:15	82.6	82.6	83.8	52	63.2	1	2	292	0.00	29.834 
19:20	82.6	82.6	84.0	53	63.7	0	1	292	0.00	29.834 
19:25	82.4	82.4	83.7	53	63.5	0	1	292	0.00	29.834 
19:30	82.4	82.4	83.7	53	63.5	0	2	292	0.00	29.840 
19:35	82.2	82.2	83.5	53	63.3	0	1	292	0.00	29.840 
19:40	82.2	82.2	83.6	54	63.9	0	1	292	0.00	29.840 
19:45	82.0	82.0	83.4	54	63.7	0	1	292	0.00	29.845 
19:50	81.8	81.8	83.2	54	63.5	0	1	292	0.00	29.845 
19:55	81.6	81.6	82.9	54	63.3	0	1	292	0.00	29.845 
20:00	81.4	81.4	82.8	55	63.7	0	1	292	0.00	29.849 
20:05	81.1	81.1	82.6	56	63.9	0	1	292	0.00	29.849 
20:10	80.9	80.9	82.4	56	63.7	0	1	292	0.00	29.849 
20:15	80.7	80.7	82.3	57	64.0	0	0	---	0.00	29.853 
20:20	80.3	80.3	81.9	58	64.2	0	0	---	0.00	29.853 
20:25	80.1	80.1	81.7	58	64.0	0	0	---	0.00	29.853 
20:30	79.8	79.8	81.5	59	64.2	0	0	---	0.00	29.856 
20:35	79.2	79.2	81.0	61	64.6	0	0	---	0.00	29.856 
20:40	78.6	78.6	80.3	61	64.0	0	0	---	0.00	29.856 
20:45	78.1	78.1	79.9	62	64.0	0	0	---	0.00	29.868 
20:50	77.7	77.7	79.5	63	64.1	0	0	---	0.00	29.868 
20:55	77.4	77.4	79.2	65	64.7	0	0	---	0.00	29.868 
21:00	77.0	77.0	78.8	65	64.3	0	0	---	0.00	29.878 
21:05	76.7	76.7	78.5	66	64.5	0	0	---	0.00	29.878 
21:10	76.3	76.3	78.1	66	64.1	0	0	---	0.00	29.878 
21:15	76.0	76.0	77.8	67	64.2	0	0	---	0.00	29.887 
21:20	75.6	75.6	77.4	68	64.3	0	0	---	0.00	29.887 
21:25	75.3	75.3	77.0	69	64.4	0	0	---	0.00	29.887 
21:30	75.1	75.1	76.8	70	64.6	0	0	---	0.00	29.889 
21:35	74.9	74.9	74.9	70	64.4	0	0	---	0.00	29.889 
21:40	74.7	74.7	74.7	70	64.2	0	0	---	0.00	29.889 
21:45	74.6	74.6	74.6	70	64.2	0	0	---	0.00	29.893 
21:50	74.6	74.6	74.6	72	65.0	0	0	---	0.00	29.893 
21:55	74.4	74.4	74.4	72	64.8	0	0	---	0.00	29.893 
22:00	74.4	74.4	74.4	72	64.8	0	0	---	0.00	29.901 
22:05	74.4	74.4	74.4	73	65.2	0	0	---	0.00	29.901 
22:10	74.2	74.2	74.2	73	65.0	0	0	---	0.00	29.901 
22:15	74.2	74.2	74.2	74	65.4	0	0	---	0.00	29.902 
22:20	74.0	74.0	74.0	74	65.2	0	0	---	0.00	29.902 
22:25	74.0	74.0	74.0	74	65.2	0	0	---	0.00	29.902 
22:30	73.9	73.9	73.9	75	65.5	0	0	---	0.00	29.914 
22:35	73.7	73.7	73.7	75	65.3	0	0	---	0.00	29.914 
22:40	73.7	73.7	73.7	76	65.6	0	0	---	0.00	29.914 
22:45	73.7	73.7	73.7	76	65.6	0	0	---	0.00	29.918 
22:50	73.5	73.5	73.5	76	65.5	0	0	---	0.00	29.918 
22:55	73.5	73.5	73.5	77	65.8	0	0	---	0.00	29.918 
23:00	73.3	73.3	73.3	77	65.6	0	0	---	0.00	29.916 
23:05	73.2	73.2	73.2	78	65.9	0	0	---	0.00	29.916 
23:10	73.0	73.0	73.0	78	65.7	0	0	---	0.00	29.916 
23:15	72.8	72.8	72.8	79	65.9	0	0	---	0.00	29.920 
23:20	72.7	72.7	72.7	79	65.8	0	0	---	0.00	29.920 
23:25	72.5	72.5	72.5	80	66.0	0	0	---	0.00	29.920 
23:30	72.3	72.3	72.3	80	65.8	0	0	---	0.00	29.928 
23:35	72.1	72.1	72.1	81	65.9	0	0	---	0.00	29.928 
23:40	72.0	72.0	72.0	81	65.8	0	0	---	0.00	29.928 
23:45	72.0	72.0	72.0	81	65.8	0	0	---	0.00	29.932 
23:50	72.0	72.0	72.0	81	65.8	0	0	---	0.00	29.932 
23:55	71.8	71.8	71.8	81	65.6	0	0	---	0.00	29.932 

CoCoRaHS
IN-AL-39
A2 Web Hosting
Creative Commons License
GoDaddy
search engine by freefind advanced

loaded 2018-11-17 15:16:47 • last modified 2010-11-18 10:43:29
Privacy PolicyDisclaimer
• wx.awcolley.com is powered by PmWiki v.2002016 •
• all content (unless otherwise noted) © 2018 A W Colley